sensor_id;sensor_type;location;lat;lon;timestamp;pressure;altitude;pressure_sealevel;temperature;humidity
7441;BME280;29616;51.950;8.572;2023-02-13T00:01:38;102228.25;;;8.48;100.00
7441;BME280;29616;51.950;8.572;2023-02-13T00:04:09;102230.97;;;8.48;100.00
7441;BME280;29616;51.950;8.572;2023-02-13T00:06:39;102235.34;;;8.51;100.00
7441;BME280;29616;51.950;8.572;2023-02-13T00:09:07;102222.97;;;8.45;100.00
7441;BME280;29616;51.950;8.572;2023-02-13T00:11:36;102230.88;;;8.50;100.00
7441;BME280;29616;51.950;8.572;2023-02-13T00:14:07;102232.88;;;8.46;100.00
7441;BME280;29616;51.950;8.572;2023-02-13T00:16:37;102226.28;;;8.50;100.00
7441;BME280;29616;51.950;8.572;2023-02-13T00:19:06;102206.06;;;8.39;100.00
7441;BME280;29616;51.950;8.572;2023-02-13T00:21:35;102222.78;;;8.48;100.00
7441;BME280;29616;51.950;8.572;2023-02-13T00:24:06;102223.66;;;8.49;100.00
7441;BME280;29616;51.950;8.572;2023-02-13T00:26:36;102229.63;;;8.40;100.00
7441;BME280;29616;51.950;8.572;2023-02-13T00:29:08;102221.13;;;8.46;100.00
7441;BME280;29616;51.950;8.572;2023-02-13T00:31:39;102234.75;;;8.46;100.00
7441;BME280;29616;51.950;8.572;2023-02-13T00:34:10;102226.03;;;8.39;100.00
7441;BME280;29616;51.950;8.572;2023-02-13T00:36:39;102217.75;;;8.41;100.00
7441;BME280;29616;51.950;8.572;2023-02-13T00:39:10;102225.75;;;8.44;100.00
7441;BME280;29616;51.950;8.572;2023-02-13T00:41:40;102221.19;;;8.44;100.00
7441;BME280;29616;51.950;8.572;2023-02-13T00:44:10;102205.72;;;8.29;100.00
7441;BME280;29616;51.950;8.572;2023-02-13T00:46:40;102220.56;;;8.39;100.00
7441;BME280;29616;51.950;8.572;2023-02-13T00:49:10;102212.41;;;8.39;100.00
7441;BME280;29616;51.950;8.572;2023-02-13T00:51:40;102225.06;;;8.40;100.00
7441;BME280;29616;51.950;8.572;2023-02-13T00:54:11;102223.56;;;8.35;100.00
7441;BME280;29616;51.950;8.572;2023-02-13T00:56:39;102211.53;;;8.39;100.00
7441;BME280;29616;51.950;8.572;2023-02-13T00:59:12;102212.56;;;8.36;100.00
7441;BME280;29616;51.950;8.572;2023-02-13T01:01:43;102222.41;;;8.39;100.00
7441;BME280;29616;51.950;8.572;2023-02-13T01:04:16;102216.09;;;8.38;100.00
7441;BME280;29616;51.950;8.572;2023-02-13T01:06:44;102218.03;;;8.36;100.00
7441;BME280;29616;51.950;8.572;2023-02-13T01:09:13;102220.75;;;8.36;100.00
7441;BME280;29616;51.950;8.572;2023-02-13T01:11:42;102219.69;;;8.39;100.00
7441;BME280;29616;51.950;8.572;2023-02-13T01:14:13;102222.25;;;8.42;100.00
7441;BME280;29616;51.950;8.572;2023-02-13T01:16:43;102219.44;;;8.43;100.00
7441;BME280;29616;51.950;8.572;2023-02-13T01:19:12;102215.91;;;8.41;100.00
7441;BME280;29616;51.950;8.572;2023-02-13T01:21:42;102200.94;;;8.17;100.00
7441;BME280;29616;51.950;8.572;2023-02-13T01:24:11;102224.47;;;8.35;100.00
7441;BME280;29616;51.950;8.572;2023-02-13T01:26:40;102218.03;;;8.36;100.00
7441;BME280;29616;51.950;8.572;2023-02-13T01:29:12;102224.09;;;8.41;100.00
7441;BME280;29616;51.950;8.572;2023-02-13T01:31:43;102215.91;;;8.41;100.00
7441;BME280;29616;51.950;8.572;2023-02-13T01:34:13;102209.84;;;8.36;100.00
7441;BME280;29616;51.950;8.572;2023-02-13T01:36:42;102215.22;;;8.38;100.00
7441;BME280;29616;51.950;8.572;2023-02-13T01:39:11;102208.13;;;8.35;100.00
7441;BME280;29616;51.950;8.572;2023-02-13T01:41:42;102202.84;;;8.32;100.00
7441;BME280;29616;51.950;8.572;2023-02-13T01:44:44;102201.69;;;8.36;100.00
7441;BME280;29616;51.950;8.572;2023-02-13T01:47:22;102202.03;;;8.30;100.00
7441;BME280;29616;51.950;8.572;2023-02-13T01:50:03;102194.97;;;8.26;100.00
7441;BME280;29616;51.950;8.572;2023-02-13T01:52:34;102175.81;;;8.12;100.00
7441;BME280;29616;51.950;8.572;2023-02-13T01:55:04;102198.66;;;8.25;100.00
7441;BME280;29616;51.950;8.572;2023-02-13T01:57:34;102201.66;;;8.21;100.00
7441;BME280;29616;51.950;8.572;2023-02-13T02:00:09;102190.03;;;8.17;100.00
7441;BME280;29616;51.950;8.572;2023-02-13T02:02:49;102190.47;;;8.25;100.00
7441;BME280;29616;51.950;8.572;2023-02-13T02:05:27;102198.84;;;8.22;100.00
7441;BME280;29616;51.950;8.572;2023-02-13T02:07:58;102199.81;;;8.21;100.00
7441;BME280;29616;51.950;8.572;2023-02-13T02:10:28;102195.47;;;8.17;100.00
7441;BME280;29616;51.950;8.572;2023-02-13T02:13:04;102189.69;;;8.23;100.00
7441;BME280;29616;51.950;8.572;2023-02-13T02:15:37;102187.97;;;8.22;100.00
7441;BME280;29616;51.950;8.572;2023-02-13T02:18:13;102186.81;;;8.26;100.00
7441;BME280;29616;51.950;8.572;2023-02-13T02:21:14;102178.72;;;8.25;100.00
7441;BME280;29616;51.950;8.572;2023-02-13T02:24:33;102190.47;;;8.25;100.00
7441;BME280;29616;51.950;8.572;2023-02-13T02:30:55;102180.47;;;8.26;100.00
7441;BME280;29616;51.950;8.572;2023-02-13T02:33:41;102184.06;;;8.26;100.00
7441;BME280;29616;51.950;8.572;2023-02-13T02:36:29;102176.19;;;8.22;100.00
7441;BME280;29616;51.950;8.572;2023-02-13T02:39:12;102162.19;;;8.12;100.00
7441;BME280;29616;51.950;8.572;2023-02-13T02:41:57;102180.63;;;8.23;100.00
7441;BME280;29616;51.950;8.572;2023-02-13T02:44:35;102180.75;;;8.21;100.00
7441;BME280;29616;51.950;8.572;2023-02-13T02:47:13;102158.34;;;8.16;100.00
7441;BME280;29616;51.950;8.572;2023-02-13T02:50:28;102164.75;;;8.15;100.00
7441;BME280;29616;51.950;8.572;2023-02-13T02:53:17;102161.94;;;8.17;100.00
7441;BME280;29616;51.950;8.572;2023-02-13T02:56:07;102168.97;;;8.21;100.00
7441;BME280;29616;51.950;8.572;2023-02-13T02:58:44;102172.28;;;8.10;100.00
7441;BME280;29616;51.950;8.572;2023-02-13T03:01:33;102165.78;;;8.13;100.00
7441;BME280;29616;51.950;8.572;2023-02-13T03:04:25;102163.16;;;8.11;100.00
7441;BME280;29616;51.950;8.572;2023-02-13T03:07:17;102140.34;;;7.98;100.00
7441;BME280;29616;51.950;8.572;2023-02-13T03:09:50;102158.50;;;8.13;100.00
7441;BME280;29616;51.950;8.572;2023-02-13T03:12:45;102155.00;;;8.11;100.00
7441;BME280;29616;51.950;8.572;2023-02-13T03:15:37;102154.00;;;8.12;100.00
7441;BME280;29616;51.950;8.572;2023-02-13T03:18:32;102143.66;;;8.03;100.00
7441;BME280;29616;51.950;8.572;2023-02-13T03:21:29;102145.78;;;7.98;100.00
7441;BME280;29616;51.950;8.572;2023-02-13T03:24:27;102140.94;;;8.03;100.00
7441;BME280;29616;51.950;8.572;2023-02-13T03:27:00;102136.44;;;8.02;100.00
7441;BME280;29616;51.950;8.572;2023-02-13T03:29:43;102116.59;;;8.00;100.00
7441;BME280;29616;51.950;8.572;2023-02-13T03:32:36;102139.00;;;8.05;100.00
7441;BME280;29616;51.950;8.572;2023-02-13T03:35:21;102140.13;;;8.01;100.00
7441;BME280;29616;51.950;8.572;2023-02-13T03:38:15;102141.44;;;8.10;100.00
7441;BME280;29616;51.950;8.572;2023-02-13T03:40:50;102126.06;;;7.93;100.00
7441;BME280;29616;51.950;8.572;2023-02-13T03:43:49;102151.56;;;7.92;100.00
7441;BME280;29616;51.950;8.572;2023-02-13T03:46:24;102142.59;;;7.90;100.00
7441;BME280;29616;51.950;8.572;2023-02-13T03:48:54;102144.72;;;7.85;100.00
7441;BME280;29616;51.950;8.572;2023-02-13T03:51:44;102145.84;;;7.97;100.00
7441;BME280;29616;51.950;8.572;2023-02-13T03:54:21;102159.13;;;8.03;100.00
7441;BME280;29616;51.950;8.572;2023-02-13T03:57:11;102152.63;;;8.05;100.00
7441;BME280;29616;51.950;8.572;2023-02-13T04:00:04;102151.03;;;8.01;100.00
7441;BME280;29616;51.950;8.572;2023-02-13T04:02:54;102152.78;;;8.02;100.00
7441;BME280;29616;51.950;8.572;2023-02-13T04:05:27;102153.50;;;8.06;100.00
7441;BME280;29616;51.950;8.572;2023-02-13T04:07:57;102157.91;;;8.08;100.00
7441;BME280;29616;51.950;8.572;2023-02-13T04:10:29;102155.00;;;8.11;100.00
7441;BME280;29616;51.950;8.572;2023-02-13T04:13:09;102151.41;;;8.11;100.00
7441;BME280;29616;51.950;8.572;2023-02-13T04:15:44;102136.63;;;7.99;100.00
7441;BME280;29616;51.950;8.572;2023-02-13T04:18:19;102155.50;;;8.02;100.00
7441;BME280;29616;51.950;8.572;2023-02-13T04:20:50;102150.69;;;8.07;100.00
7441;BME280;29616;51.950;8.572;2023-02-13T04:23:19;102155.25;;;8.07;100.00
7441;BME280;29616;51.950;8.572;2023-02-13T04:25:51;102159.38;;;7.98;100.00
7441;BME280;29616;51.950;8.572;2023-02-13T04:28:24;102155.63;;;8.01;100.00
7441;BME280;29616;51.950;8.572;2023-02-13T04:30:52;102161.41;;;7.94;100.00
7441;BME280;29616;51.950;8.572;2023-02-13T04:33:22;102160.00;;;8.03;100.00
7441;BME280;29616;51.950;8.572;2023-02-13T04:35:50;102153.69;;;8.03;100.00
7441;BME280;29616;51.950;8.572;2023-02-13T04:38:20;102161.75;;;8.04;100.00
7441;BME280;29616;51.950;8.572;2023-02-13T04:40:48;102140.56;;;7.93;100.00
7441;BME280;29616;51.950;8.572;2023-02-13T04:43:18;102146.91;;;7.94;100.00
7441;BME280;29616;51.950;8.572;2023-02-13T04:45:48;102158.25;;;8.02;100.00
7441;BME280;29616;51.950;8.572;2023-02-13T04:48:19;102158.41;;;7.99;100.00
7441;BME280;29616;51.950;8.572;2023-02-13T04:50:47;102128.28;;;7.86;100.00
7441;BME280;29616;51.950;8.572;2023-02-13T04:53:18;102151.22;;;7.98;100.00
7441;BME280;29616;51.950;8.572;2023-02-13T04:55:46;102150.34;;;7.98;100.00
7441;BME280;29616;51.950;8.572;2023-02-13T04:58:15;102153.13;;;7.96;100.00
7441;BME280;29616;51.950;8.572;2023-02-13T05:00:44;102141.63;;;7.91;100.00
7441;BME280;29616;51.950;8.572;2023-02-13T05:03:13;102139.69;;;7.93;100.00
7441;BME280;29616;51.950;8.572;2023-02-13T05:05:43;102148.22;;;7.87;100.00
7441;BME280;29616;51.950;8.572;2023-02-13T05:08:13;102146.28;;;7.89;100.00
7441;BME280;29616;51.950;8.572;2023-02-13T05:10:43;102135.72;;;7.83;100.00
7441;BME280;29616;51.950;8.572;2023-02-13T05:13:12;102143.72;;;7.86;100.00
7441;BME280;29616;51.950;8.572;2023-02-13T05:15:44;102147.34;;;7.86;100.00
7441;BME280;29616;51.950;8.572;2023-02-13T05:18:15;102149.97;;;7.88;100.00
7441;BME280;29616;51.950;8.572;2023-02-13T05:20:43;102132.72;;;7.72;100.00
7441;BME280;29616;51.950;8.572;2023-02-13T05:23:34;102136.72;;;7.82;100.00
7441;BME280;29616;51.950;8.572;2023-02-13T05:26:02;102136.94;;;7.77;100.00
7441;BME280;29616;51.950;8.572;2023-02-13T05:28:33;102142.34;;;7.79;100.00
7441;BME280;29616;51.950;8.572;2023-02-13T05:31:21;102155.06;;;7.78;100.00
7441;BME280;29616;51.950;8.572;2023-02-13T05:33:53;102144.88;;;7.82;100.00
7441;BME280;29616;51.950;8.572;2023-02-13T05:36:22;102148.56;;;7.81;100.00
7441;BME280;29616;51.950;8.572;2023-02-13T05:38:51;102144.88;;;7.66;100.00
7441;BME280;29616;51.950;8.572;2023-02-13T05:41:20;102134.66;;;7.70;100.00
7441;BME280;29616;51.950;8.572;2023-02-13T05:43:51;102156.28;;;7.73;100.00
7441;BME280;29616;51.950;8.572;2023-02-13T05:46:19;102160.59;;;7.77;100.00
7441;BME280;29616;51.950;8.572;2023-02-13T05:48:48;102158.38;;;7.68;100.00
7441;BME280;29616;51.950;8.572;2023-02-13T05:51:19;102147.50;;;7.68;100.00
7441;BME280;29616;51.950;8.572;2023-02-13T05:53:49;102143.97;;;7.66;100.00
7441;BME280;29616;51.950;8.572;2023-02-13T05:56:19;102159.63;;;7.78;100.00
7441;BME280;29616;51.950;8.572;2023-02-13T05:58:50;102161.22;;;7.82;100.00
7441;BME280;29616;51.950;8.572;2023-02-13T06:01:20;102158.72;;;7.77;100.00
7441;BME280;29616;51.950;8.572;2023-02-13T06:03:50;102160.34;;;7.81;100.00
7441;BME280;29616;51.950;8.572;2023-02-13T06:06:20;102158.56;;;7.80;100.00
7441;BME280;29616;51.950;8.572;2023-02-13T06:08:48;102171.81;;;7.71;100.00
7441;BME280;29616;51.950;8.572;2023-02-13T06:11:19;102148.38;;;7.68;100.00
7441;BME280;29616;51.950;8.572;2023-02-13T06:13:47;102170.34;;;7.81;100.00
7441;BME280;29616;51.950;8.572;2023-02-13T06:16:16;102168.22;;;7.86;100.00
7441;BME280;29616;51.950;8.572;2023-02-13T06:18:45;102166.28;;;7.88;100.00
7441;BME280;29616;51.950;8.572;2023-02-13T06:21:15;102156.09;;;7.76;100.00
7441;BME280;29616;51.950;8.572;2023-02-13T06:23:45;102174.66;;;7.85;100.00
7441;BME280;29616;51.950;8.572;2023-02-13T06:26:14;102178.25;;;7.85;100.00
7441;BME280;29616;51.950;8.572;2023-02-13T06:28:43;102179.56;;;7.78;100.00
7441;BME280;29616;51.950;8.572;2023-02-13T06:31:11;102179.47;;;7.80;100.00
7441;BME280;29616;51.950;8.572;2023-02-13T06:33:39;102179.28;;;7.83;100.00
7441;BME280;29616;51.950;8.572;2023-02-13T06:36:09;102183.69;;;7.85;100.00
7441;BME280;29616;51.950;8.572;2023-02-13T06:38:37;102185.63;;;7.83;100.00
7441;BME280;29616;51.950;8.572;2023-02-13T06:41:07;102189.22;;;7.84;100.00
7441;BME280;29616;51.950;8.572;2023-02-13T06:43:36;102191.22;;;7.80;100.00
7441;BME280;29616;51.950;8.572;2023-02-13T06:46:08;102186.84;;;7.78;100.00
7441;BME280;29616;51.950;8.572;2023-02-13T06:48:38;102195.78;;;7.80;100.00
7441;BME280;29616;51.950;8.572;2023-02-13T06:51:09;102191.41;;;7.77;100.00
7441;BME280;29616;51.950;8.572;2023-02-13T06:53:38;102161.13;;;7.51;100.00
7441;BME280;29616;51.950;8.572;2023-02-13T06:56:09;102186.97;;;7.59;100.00
7441;BME280;29616;51.950;8.572;2023-02-13T06:58:38;102195.09;;;7.76;100.00
7441;BME280;29616;51.950;8.572;2023-02-13T07:01:08;102199.50;;;7.79;100.00
7441;BME280;29616;51.950;8.572;2023-02-13T07:03:38;102197.09;;;7.73;100.00
7441;BME280;29616;51.950;8.572;2023-02-13T07:06:06;102207.22;;;7.71;100.00
7441;BME280;29616;51.950;8.572;2023-02-13T07:08:36;102200.63;;;7.75;100.00
7441;BME280;29616;51.950;8.572;2023-02-13T07:11:05;102209.59;;;7.77;100.00
7441;BME280;29616;51.950;8.572;2023-02-13T07:13:35;102203.00;;;7.81;100.00
7441;BME280;29616;51.950;8.572;2023-02-13T07:16:04;102211.91;;;7.84;100.00
7441;BME280;29616;51.950;8.572;2023-02-13T07:18:34;102202.69;;;7.87;100.00
7441;BME280;29616;51.950;8.572;2023-02-13T07:21:05;102215.84;;;7.94;100.00
7441;BME280;29616;51.950;8.572;2023-02-13T07:23:33;102213.91;;;7.97;100.00
7441;BME280;29616;51.950;8.572;2023-02-13T07:26:03;102206.53;;;7.99;100.00
7441;BME280;29616;51.950;8.572;2023-02-13T07:28:32;102213.19;;;7.93;100.00
7441;BME280;29616;51.950;8.572;2023-02-13T07:31:04;102211.13;;;7.98;100.00
7441;BME280;29616;51.950;8.572;2023-02-13T07:33:33;102214.63;;;8.00;100.00
7441;BME280;29616;51.950;8.572;2023-02-13T07:36:05;102204.19;;;7.92;100.00
7441;BME280;29616;51.950;8.572;2023-02-13T07:38:35;102203.03;;;7.97;100.00
7441;BME280;29616;51.950;8.572;2023-02-13T07:41:04;102197.91;;;7.90;100.00
7441;BME280;29616;51.950;8.572;2023-02-13T07:43:33;102205.84;;;7.95;100.00
7441;BME280;29616;51.950;8.572;2023-02-13T07:46:03;102193.72;;;7.85;100.00
7441;BME280;29616;51.950;8.572;2023-02-13T07:48:33;102219.91;;;8.03;100.00
7441;BME280;29616;51.950;8.572;2023-02-13T07:51:04;102219.38;;;8.12;100.00
7441;BME280;29616;51.950;8.572;2023-02-13T07:53:33;102222.38;;;8.08;100.00
7441;BME280;29616;51.950;8.572;2023-02-13T07:56:05;102222.72;;;8.02;100.00
7441;BME280;29616;51.950;8.572;2023-02-13T07:58:35;102226.16;;;8.05;100.00
7441;BME280;29616;51.950;8.572;2023-02-13T08:01:10;102224.66;;;8.15;100.00
7441;BME280;29616;51.950;8.572;2023-02-13T08:03:39;102222.03;;;8.14;100.00
7441;BME280;29616;51.950;8.572;2023-02-13T08:06:09;102201.81;;;8.02;100.00
7441;BME280;29616;51.950;8.572;2023-02-13T08:08:38;102225.09;;;7.92;100.00
7441;BME280;29616;51.950;8.572;2023-02-13T08:11:28;102222.78;;;7.84;100.00
7441;BME280;29616;51.950;8.572;2023-02-13T08:14:17;102220.69;;;7.89;100.00
7441;BME280;29616;51.950;8.572;2023-02-13T08:16:47;102237.31;;;8.01;100.00
7441;BME280;29616;51.950;8.572;2023-02-13T08:19:17;102208.16;;;8.03;100.00
7441;BME280;29616;51.950;8.572;2023-02-13T08:21:46;102226.59;;;8.13;100.00
7441;BME280;29616;51.950;8.572;2023-02-13T08:24:15;102225.00;;;8.09;100.00
7441;BME280;29616;51.950;8.572;2023-02-13T08:26:45;102225.38;;;8.03;100.00
7441;BME280;29616;51.950;8.572;2023-02-13T08:29:13;102219.00;;;7.87;100.00
7441;BME280;29616;51.950;8.572;2023-02-13T08:31:44;102217.66;;;8.11;100.00
7441;BME280;29616;51.950;8.572;2023-02-13T08:34:13;102204.81;;;7.98;100.00
7441;BME280;29616;51.950;8.572;2023-02-13T08:36:43;102220.28;;;8.13;100.00
7441;BME280;29616;51.950;8.572;2023-02-13T08:39:12;102219.03;;;8.18;100.00
7441;BME280;29616;51.950;8.572;2023-02-13T08:41:43;102221.34;;;8.26;100.00
7441;BME280;29616;51.950;8.572;2023-02-13T08:44:11;102218.13;;;8.35;100.00
7441;BME280;29616;51.950;8.572;2023-02-13T08:46:41;102213.13;;;8.43;100.00
7441;BME280;29616;51.950;8.572;2023-02-13T08:49:09;102217.03;;;8.69;100.00
7441;BME280;29616;51.950;8.572;2023-02-13T08:51:40;102215.53;;;8.79;100.00
7441;BME280;29616;51.950;8.572;2023-02-13T08:54:10;102219.59;;;8.72;100.00
7441;BME280;29616;51.950;8.572;2023-02-13T08:56:39;102219.34;;;8.45;100.00
7441;BME280;29616;51.950;8.572;2023-02-13T08:59:09;102194.84;;;8.29;100.00
7441;BME280;29616;51.950;8.572;2023-02-13T09:01:40;102225.69;;;8.45;100.00
7441;BME280;29616;51.950;8.572;2023-02-13T09:04:08;102230.50;;;8.72;100.00
7441;BME280;29616;51.950;8.572;2023-02-13T09:06:39;102231.03;;;8.63;100.00
7441;BME280;29616;51.950;8.572;2023-02-13T09:09:09;102203.06;;;8.75;100.00
7441;BME280;29616;51.950;8.572;2023-02-13T09:11:40;102227.28;;;8.95;100.00
7441;BME280;29616;51.950;8.572;2023-02-13T09:14:08;102232.34;;;8.71;100.00
7441;BME280;29616;51.950;8.572;2023-02-13T09:16:37;102224.69;;;8.78;100.00
7441;BME280;29616;51.950;8.572;2023-02-13T09:19:06;102212.72;;;8.80;100.00
7441;BME280;29616;51.950;8.572;2023-02-13T09:21:35;102233.94;;;9.05;100.00
7441;BME280;29616;51.950;8.572;2023-02-13T09:24:08;102205.50;;;8.79;100.00
7441;BME280;29616;51.950;8.572;2023-02-13T09:26:38;102231.44;;;8.71;100.00
7441;BME280;29616;51.950;8.572;2023-02-13T09:29:07;102232.13;;;8.90;100.00
7441;BME280;29616;51.950;8.572;2023-02-13T09:31:36;102223.44;;;8.83;100.00
7441;BME280;29616;51.950;8.572;2023-02-13T09:34:04;102231.19;;;8.91;100.00
7441;BME280;29616;51.950;8.572;2023-02-13T09:36:35;102229.00;;;9.11;100.00
7441;BME280;29616;51.950;8.572;2023-02-13T09:39:04;102243.00;;;9.35;100.00
7441;BME280;29616;51.950;8.572;2023-02-13T09:41:38;102224.72;;;9.51;100.00
7441;BME280;29616;51.950;8.572;2023-02-13T09:44:14;102239.34;;;9.64;100.00
7441;BME280;29616;51.950;8.572;2023-02-13T09:47:04;102236.53;;;9.52;100.00
7441;BME280;29616;51.950;8.572;2023-02-13T09:49:39;102235.25;;;9.71;100.00
7441;BME280;29616;51.950;8.572;2023-02-13T09:52:11;102238.38;;;9.80;100.00
7441;BME280;29616;51.950;8.572;2023-02-13T09:54:40;102238.09;;;9.98;100.00
7441;BME280;29616;51.950;8.572;2023-02-13T09:57:18;102239.06;;;9.83;100.00
7441;BME280;29616;51.950;8.572;2023-02-13T09:59:57;102250.09;;;9.67;100.00
7441;BME280;29616;51.950;8.572;2023-02-13T10:02:43;102238.28;;;9.67;100.00
7441;BME280;29616;51.950;8.572;2023-02-13T10:05:29;102233.31;;;9.59;100.00
7441;BME280;29616;51.950;8.572;2023-02-13T10:08:09;102229.88;;;9.56;100.00
7441;BME280;29616;51.950;8.572;2023-02-13T10:10:50;102220.25;;;9.79;100.00
7441;BME280;29616;51.950;8.572;2023-02-13T10:13:42;102238.59;;;10.05;100.00
7441;BME280;29616;51.950;8.572;2023-02-13T10:16:16;102236.47;;;9.82;100.00
7441;BME280;29616;51.950;8.572;2023-02-13T10:18:51;102227.59;;;9.92;100.00
7441;BME280;29616;51.950;8.572;2023-02-13T10:21:28;102217.31;;;9.96;100.00
7441;BME280;29616;51.950;8.572;2023-02-13T10:24:04;102235.97;;;10.31;100.00
7441;BME280;29616;51.950;8.572;2023-02-13T10:26:37;102219.06;;;10.39;100.00
7441;BME280;29616;51.950;8.572;2023-02-13T10:29:18;102215.81;;;10.47;100.00
7441;BME280;29616;51.950;8.572;2023-02-13T10:32:10;102220.19;;;10.49;100.00
7441;BME280;29616;51.950;8.572;2023-02-13T10:34:44;102232.94;;;10.22;100.00
7441;BME280;29616;51.950;8.572;2023-02-13T10:37:16;102224.91;;;10.47;100.00
7441;BME280;29616;51.950;8.572;2023-02-13T10:39:49;102215.13;;;10.96;100.00
7441;BME280;29616;51.950;8.572;2023-02-13T10:42:26;102195.75;;;10.87;100.00
7441;BME280;29616;51.950;8.572;2023-02-13T10:45:12;102222.41;;;11.10;100.00
7441;BME280;29616;51.950;8.572;2023-02-13T10:48:01;102213.34;;;11.10;100.00
7441;BME280;29616;51.950;8.572;2023-02-13T10:50:44;102210.69;;;10.95;100.00
7441;BME280;29616;51.950;8.572;2023-02-13T10:53:21;102231.00;;;10.65;100.00
7441;BME280;29616;51.950;8.572;2023-02-13T10:56:14;102223.25;;;10.45;100.00
7441;BME280;29616;51.950;8.572;2023-02-13T10:59:01;102210.38;;;10.04;100.00
7441;BME280;29616;51.950;8.572;2023-02-13T11:01:41;102218.66;;;10.45;100.00
7441;BME280;29616;51.950;8.572;2023-02-13T11:04:17;102208.16;;;10.66;100.00
7441;BME280;29616;51.950;8.572;2023-02-13T11:06:53;102216.91;;;10.71;100.00
7441;BME280;29616;51.950;8.572;2023-02-13T11:09:24;102197.31;;;10.64;100.00
7441;BME280;29616;51.950;8.572;2023-02-13T11:11:55;102211.97;;;10.63;100.00
7441;BME280;29616;51.950;8.572;2023-02-13T11:14:25;102213.38;;;10.56;100.00
7441;BME280;29616;51.950;8.572;2023-02-13T11:17:00;102209.19;;;10.77;100.00
7441;BME280;29616;51.950;8.572;2023-02-13T11:19:33;102207.28;;;11.05;100.00
7441;BME280;29616;51.950;8.572;2023-02-13T11:22:07;102202.13;;;11.00;100.00
7441;BME280;29616;51.950;8.572;2023-02-13T11:24:36;102200.81;;;10.93;100.00
7441;BME280;29616;51.950;8.572;2023-02-13T11:27:11;102204.72;;;10.62;100.00
7441;BME280;29616;51.950;8.572;2023-02-13T11:29:52;102200.63;;;11.09;100.00
7441;BME280;29616;51.950;8.572;2023-02-13T11:32:25;102199.06;;;11.05;100.00
7441;BME280;29616;51.950;8.572;2023-02-13T11:34:55;102201.13;;;11.28;100.00
7441;BME280;29616;51.950;8.572;2023-02-13T11:37:27;102196.34;;;11.69;100.00
7441;BME280;29616;51.950;8.572;2023-02-13T11:39:59;102201.13;;;11.53;100.00
7441;BME280;29616;51.950;8.572;2023-02-13T11:42:30;102198.72;;;11.36;100.00
7441;BME280;29616;51.950;8.572;2023-02-13T11:45:03;102197.13;;;11.84;100.00
7441;BME280;29616;51.950;8.572;2023-02-13T11:47:41;102192.59;;;11.95;100.00
7441;BME280;29616;51.950;8.572;2023-02-13T11:50:30;102173.72;;;12.52;100.00
7441;BME280;29616;51.950;8.572;2023-02-13T11:53:05;102174.94;;;12.96;100.00
7441;BME280;29616;51.950;8.572;2023-02-13T11:55:39;102182.19;;;13.31;100.00
7441;BME280;29616;51.950;8.572;2023-02-13T11:58:23;102172.56;;;13.26;100.00
7441;BME280;29616;51.950;8.572;2023-02-13T12:01:25;102170.59;;;12.57;100.00
7441;BME280;29616;51.950;8.572;2023-02-13T12:04:04;102160.28;;;12.84;100.00
7441;BME280;29616;51.950;8.572;2023-02-13T12:06:35;102167.56;;;13.20;100.00
7441;BME280;29616;51.950;8.572;2023-02-13T12:09:12;102158.25;;;13.45;100.00
7441;BME280;29616;51.950;8.572;2023-02-13T12:11:46;102161.66;;;13.59;100.00
7441;BME280;29616;51.950;8.572;2023-02-13T12:14:22;102170.50;;;13.63;100.00
7441;BME280;29616;51.950;8.572;2023-02-13T12:16:58;102147.97;;;13.24;100.00
7441;BME280;29616;51.950;8.572;2023-02-13T12:19:34;102159.44;;;13.18;100.00
7441;BME280;29616;51.950;8.572;2023-02-13T12:22:28;102156.25;;;13.01;100.00
7441;BME280;29616;51.950;8.572;2023-02-13T12:28:11;102139.84;;;12.41;100.00
7441;BME280;29616;51.950;8.572;2023-02-13T12:31:08;102142.56;;;12.53;100.00
7441;BME280;29616;51.950;8.572;2023-02-13T12:37:18;102129.50;;;12.92;100.00
7441;BME280;29616;51.950;8.572;2023-02-13T12:40:15;102123.41;;;15.39;100.00
7441;BME280;29616;51.950;8.572;2023-02-13T12:43:08;102119.78;;;16.19;100.00
7441;BME280;29616;51.950;8.572;2023-02-13T12:45:47;102105.59;;;16.43;100.00
7441;BME280;29616;51.950;8.572;2023-02-13T12:48:33;102123.91;;;17.49;100.00
7441;BME280;29616;51.950;8.572;2023-02-13T12:51:24;102113.19;;;17.18;100.00
7441;BME280;29616;51.950;8.572;2023-02-13T12:54:07;102094.41;;;17.87;100.00
7441;BME280;29616;51.950;8.572;2023-02-13T12:57:00;102112.78;;;17.13;100.00
7441;BME280;29616;51.950;8.572;2023-02-13T12:59:38;102097.59;;;17.36;100.00
7441;BME280;29616;51.950;8.572;2023-02-13T13:02:25;102107.97;;;18.07;100.00
7441;BME280;29616;51.950;8.572;2023-02-13T13:05:13;102093.22;;;19.32;100.00
7441;BME280;29616;51.950;8.572;2023-02-13T13:07:55;102087.81;;;19.30;100.00
7441;BME280;29616;51.950;8.572;2023-02-13T13:10:39;102085.66;;;19.68;100.00
7441;BME280;29616;51.950;8.572;2023-02-13T13:13:17;102081.78;;;18.74;100.00
7441;BME280;29616;51.950;8.572;2023-02-13T13:15:53;102088.84;;;19.47;100.00
7441;BME280;29616;51.950;8.572;2023-02-13T13:18:32;102053.69;;;18.51;100.00
7441;BME280;29616;51.950;8.572;2023-02-13T13:21:12;102075.06;;;18.94;100.00
7441;BME280;29616;51.950;8.572;2023-02-13T13:23:48;102076.28;;;18.47;100.00
7441;BME280;29616;51.950;8.572;2023-02-13T13:26:22;102075.63;;;18.17;100.00
7441;BME280;29616;51.950;8.572;2023-02-13T13:28:54;102064.97;;;17.95;100.00
7441;BME280;29616;51.950;8.572;2023-02-13T13:31:25;102075.63;;;18.62;100.00
7441;BME280;29616;51.950;8.572;2023-02-13T13:33:55;102063.34;;;19.26;100.00
7441;BME280;29616;51.950;8.572;2023-02-13T13:36:33;102062.94;;;19.64;96.33
7441;BME280;29616;51.950;8.572;2023-02-13T13:39:05;102062.34;;;19.35;92.46
7441;BME280;29616;51.950;8.572;2023-02-13T13:41:40;102067.03;;;19.09;100.00
7441;BME280;29616;51.950;8.572;2023-02-13T13:44:20;102067.72;;;19.28;96.64
7441;BME280;29616;51.950;8.572;2023-02-13T13:46:56;102050.94;;;19.12;97.28
7441;BME280;29616;51.950;8.572;2023-02-13T13:49:34;102075.63;;;19.41;94.05